sensor_id;sensor_type;location;lat;lon;timestamp;P1;durP1;ratioP1;P2;durP2;ratioP2
20623;SDS011;10471;42.736;23.346;2023-05-17T00:02:10;23.00;;;11.30;;
20623;SDS011;10471;42.736;23.346;2023-05-17T00:04:35;23.47;;;10.70;;
20623;SDS011;10471;42.736;23.346;2023-05-17T00:07:00;22.10;;;10.00;;
20623;SDS011;10471;42.736;23.346;2023-05-17T00:09:26;21.73;;;10.37;;
20623;SDS011;10471;42.736;23.346;2023-05-17T00:11:51;19.37;;;10.03;;
20623;SDS011;10471;42.736;23.346;2023-05-17T00:14:17;23.67;;;10.93;;
20623;SDS011;10471;42.736;23.346;2023-05-17T00:16:42;20.17;;;11.13;;
20623;SDS011;10471;42.736;23.346;2023-05-17T00:19:08;19.37;;;10.57;;
20623;SDS011;10471;42.736;23.346;2023-05-17T00:21:33;17.97;;;9.53;;
20623;SDS011;10471;42.736;23.346;2023-05-17T00:23:59;23.10;;;10.47;;
20623;SDS011;10471;42.736;23.346;2023-05-17T00:26:25;20.97;;;10.43;;
20623;SDS011;10471;42.736;23.346;2023-05-17T00:28:51;16.43;;;10.30;;
20623;SDS011;10471;42.736;23.346;2023-05-17T00:31:16;18.63;;;9.70;;
20623;SDS011;10471;42.736;23.346;2023-05-17T00:33:41;21.33;;;11.80;;
20623;SDS011;10471;42.736;23.346;2023-05-17T00:36:07;21.57;;;10.93;;
20623;SDS011;10471;42.736;23.346;2023-05-17T00:38:32;21.80;;;10.87;;
20623;SDS011;10471;42.736;23.346;2023-05-17T00:40:58;23.60;;;11.00;;
20623;SDS011;10471;42.736;23.346;2023-05-17T00:43:23;22.27;;;10.63;;
20623;SDS011;10471;42.736;23.346;2023-05-17T00:45:50;18.97;;;10.20;;
20623;SDS011;10471;42.736;23.346;2023-05-17T00:48:15;16.77;;;9.70;;
20623;SDS011;10471;42.736;23.346;2023-05-17T00:50:41;17.57;;;10.13;;
20623;SDS011;10471;42.736;23.346;2023-05-17T00:53:07;24.00;;;10.87;;
20623;SDS011;10471;42.736;23.346;2023-05-17T00:55:33;28.27;;;11.50;;
20623;SDS011;10471;42.736;23.346;2023-05-17T00:57:59;18.07;;;11.07;;
20623;SDS011;10471;42.736;23.346;2023-05-17T01:00:25;24.33;;;11.90;;
20623;SDS011;10471;42.736;23.346;2023-05-17T01:02:51;24.47;;;11.80;;
20623;SDS011;10471;42.736;23.346;2023-05-17T01:05:16;24.53;;;11.53;;
20623;SDS011;10471;42.736;23.346;2023-05-17T01:07:42;24.20;;;12.50;;
20623;SDS011;10471;42.736;23.346;2023-05-17T01:10:07;23.90;;;12.93;;
20623;SDS011;10471;42.736;23.346;2023-05-17T01:15:27;27.03;;;13.00;;
20623;SDS011;10471;42.736;23.346;2023-05-17T01:20:43;23.97;;;12.87;;
20623;SDS011;10471;42.736;23.346;2023-05-17T01:26:18;23.40;;;11.43;;
20623;SDS011;10471;42.736;23.346;2023-05-17T01:28:51;20.90;;;11.20;;
20623;SDS011;10471;42.736;23.346;2023-05-17T01:31:18;18.70;;;11.27;;
20623;SDS011;10471;42.736;23.346;2023-05-17T01:33:45;18.97;;;11.70;;
20623;SDS011;10471;42.736;23.346;2023-05-17T01:36:10;22.33;;;11.87;;
20623;SDS011;10471;42.736;23.346;2023-05-17T01:38:36;19.57;;;11.23;;
20623;SDS011;10471;42.736;23.346;2023-05-17T01:47:47;60.63;;;35.03;;
20623;SDS011;10471;42.736;23.346;2023-05-17T01:49:55;25.13;;;15.60;;
20623;SDS011;10471;42.736;23.346;2023-05-17T01:55:17;24.37;;;13.67;;
20623;SDS011;10471;42.736;23.346;2023-05-17T01:57:51;26.97;;;13.90;;
20623;SDS011;10471;42.736;23.346;2023-05-17T02:00:19;23.93;;;13.60;;
20623;SDS011;10471;42.736;23.346;2023-05-17T02:02:47;25.17;;;15.90;;
20623;SDS011;10471;42.736;23.346;2023-05-17T02:05:13;26.30;;;14.67;;
20623;SDS011;10471;42.736;23.346;2023-05-17T02:07:38;34.67;;;21.57;;
20623;SDS011;10471;42.736;23.346;2023-05-17T02:10:05;26.43;;;17.47;;
20623;SDS011;10471;42.736;23.346;2023-05-17T02:12:31;31.50;;;19.83;;
20623;SDS011;10471;42.736;23.346;2023-05-17T02:14:56;26.83;;;16.97;;
20623;SDS011;10471;42.736;23.346;2023-05-17T02:17:22;24.83;;;15.13;;
20623;SDS011;10471;42.736;23.346;2023-05-17T02:19:48;23.23;;;14.73;;
20623;SDS011;10471;42.736;23.346;2023-05-17T02:22:13;25.40;;;14.77;;
20623;SDS011;10471;42.736;23.346;2023-05-17T02:24:39;25.93;;;14.57;;
20623;SDS011;10471;42.736;23.346;2023-05-17T02:27:04;29.87;;;16.03;;
20623;SDS011;10471;42.736;23.346;2023-05-17T02:29:29;30.03;;;17.77;;
20623;SDS011;10471;42.736;23.346;2023-05-17T02:31:55;32.97;;;19.00;;
20623;SDS011;10471;42.736;23.346;2023-05-17T02:34:21;39.97;;;21.20;;
20623;SDS011;10471;42.736;23.346;2023-05-17T02:36:46;47.70;;;24.27;;
20623;SDS011;10471;42.736;23.346;2023-05-17T02:39:12;47.67;;;24.83;;
20623;SDS011;10471;42.736;23.346;2023-05-17T02:41:38;44.43;;;24.23;;
20623;SDS011;10471;42.736;23.346;2023-05-17T02:44:03;36.07;;;20.60;;
20623;SDS011;10471;42.736;23.346;2023-05-17T02:46:29;38.90;;;20.93;;
20623;SDS011;10471;42.736;23.346;2023-05-17T02:48:54;41.73;;;24.13;;
20623;SDS011;10471;42.736;23.346;2023-05-17T02:51:20;28.33;;;17.03;;
20623;SDS011;10471;42.736;23.346;2023-05-17T02:53:45;35.07;;;15.73;;
20623;SDS011;10471;42.736;23.346;2023-05-17T02:56:10;27.47;;;16.70;;
20623;SDS011;10471;42.736;23.346;2023-05-17T02:58:36;29.43;;;16.80;;
20623;SDS011;10471;42.736;23.346;2023-05-17T03:01:02;29.70;;;15.40;;
20623;SDS011;10471;42.736;23.346;2023-05-17T03:03:27;24.90;;;15.17;;
20623;SDS011;10471;42.736;23.346;2023-05-17T03:05:52;27.60;;;14.50;;
20623;SDS011;10471;42.736;23.346;2023-05-17T03:08:18;22.00;;;13.97;;
20623;SDS011;10471;42.736;23.346;2023-05-17T03:10:43;23.90;;;14.33;;
20623;SDS011;10471;42.736;23.346;2023-05-17T03:13:09;32.50;;;16.30;;
20623;SDS011;10471;42.736;23.346;2023-05-17T03:15:34;24.17;;;14.67;;
20623;SDS011;10471;42.736;23.346;2023-05-17T03:17:59;25.47;;;16.00;;
20623;SDS011;10471;42.736;23.346;2023-05-17T03:20:25;32.57;;;18.07;;
20623;SDS011;10471;42.736;23.346;2023-05-17T03:22:50;39.17;;;19.20;;
20623;SDS011;10471;42.736;23.346;2023-05-17T03:25:16;40.57;;;22.80;;
20623;SDS011;10471;42.736;23.346;2023-05-17T03:27:41;38.20;;;21.10;;
20623;SDS011;10471;42.736;23.346;2023-05-17T03:30:07;36.47;;;21.97;;
20623;SDS011;10471;42.736;23.346;2023-05-17T03:32:33;34.60;;;19.90;;
20623;SDS011;10471;42.736;23.346;2023-05-17T03:34:58;33.97;;;19.67;;
20623;SDS011;10471;42.736;23.346;2023-05-17T03:37:24;39.03;;;18.67;;
20623;SDS011;10471;42.736;23.346;2023-05-17T03:39:49;28.77;;;20.27;;
20623;SDS011;10471;42.736;23.346;2023-05-17T03:42:15;33.70;;;18.83;;
20623;SDS011;10471;42.736;23.346;2023-05-17T03:44:40;28.30;;;18.27;;
20623;SDS011;10471;42.736;23.346;2023-05-17T03:47:05;35.93;;;18.60;;
20623;SDS011;10471;42.736;23.346;2023-05-17T03:49:31;25.77;;;17.10;;
20623;SDS011;10471;42.736;23.346;2023-05-17T03:51:58;31.37;;;17.93;;
20623;SDS011;10471;42.736;23.346;2023-05-17T03:54:23;40.97;;;27.00;;
20623;SDS011;10471;42.736;23.346;2023-05-17T03:56:48;36.90;;;20.67;;
20623;SDS011;10471;42.736;23.346;2023-05-17T03:59:14;28.90;;;20.20;;
20623;SDS011;10471;42.736;23.346;2023-05-17T04:01:41;28.80;;;19.27;;
20623;SDS011;10471;42.736;23.346;2023-05-17T04:04:07;35.97;;;20.00;;
20623;SDS011;10471;42.736;23.346;2023-05-17T04:06:33;30.53;;;18.80;;
20623;SDS011;10471;42.736;23.346;2023-05-17T04:08:59;30.90;;;19.53;;
20623;SDS011;10471;42.736;23.346;2023-05-17T04:11:25;31.93;;;19.67;;
20623;SDS011;10471;42.736;23.346;2023-05-17T04:13:52;29.07;;;19.70;;
20623;SDS011;10471;42.736;23.346;2023-05-17T04:16:18;30.87;;;20.47;;
20623;SDS011;10471;42.736;23.346;2023-05-17T04:18:44;32.70;;;22.57;;
20623;SDS011;10471;42.736;23.346;2023-05-17T04:21:13;31.30;;;21.43;;
20623;SDS011;10471;42.736;23.346;2023-05-17T04:23:41;39.93;;;24.87;;
20623;SDS011;10471;42.736;23.346;2023-05-17T04:26:07;34.87;;;24.17;;
20623;SDS011;10471;42.736;23.346;2023-05-17T04:28:32;42.27;;;23.90;;
20623;SDS011;10471;42.736;23.346;2023-05-17T04:30:58;38.57;;;23.17;;
20623;SDS011;10471;42.736;23.346;2023-05-17T04:33:24;34.83;;;23.37;;
20623;SDS011;10471;42.736;23.346;2023-05-17T04:35:50;32.03;;;23.00;;
20623;SDS011;10471;42.736;23.346;2023-05-17T04:38:18;39.33;;;24.33;;
20623;SDS011;10471;42.736;23.346;2023-05-17T04:40:44;36.37;;;23.57;;
20623;SDS011;10471;42.736;23.346;2023-05-17T04:43:09;36.87;;;24.13;;
20623;SDS011;10471;42.736;23.346;2023-05-17T04:45:35;38.97;;;25.00;;
20623;SDS011;10471;42.736;23.346;2023-05-17T04:48:01;37.80;;;24.77;;
20623;SDS011;10471;42.736;23.346;2023-05-17T04:50:27;35.33;;;24.20;;
20623;SDS011;10471;42.736;23.346;2023-05-17T04:52:53;33.80;;;24.97;;
20623;SDS011;10471;42.736;23.346;2023-05-17T04:55:18;40.23;;;27.77;;
20623;SDS011;10471;42.736;23.346;2023-05-17T04:57:43;40.33;;;28.20;;
20623;SDS011;10471;42.736;23.346;2023-05-17T05:00:09;41.77;;;28.93;;
20623;SDS011;10471;42.736;23.346;2023-05-17T05:02:35;37.10;;;26.93;;
20623;SDS011;10471;42.736;23.346;2023-05-17T05:05:01;38.03;;;25.30;;
20623;SDS011;10471;42.736;23.346;2023-05-17T05:07:28;36.77;;;26.97;;
20623;SDS011;10471;42.736;23.346;2023-05-17T05:09:54;38.03;;;25.93;;
20623;SDS011;10471;42.736;23.346;2023-05-17T05:12:19;37.13;;;25.47;;
20623;SDS011;10471;42.736;23.346;2023-05-17T05:14:45;31.70;;;24.57;;
20623;SDS011;10471;42.736;23.346;2023-05-17T05:17:10;36.67;;;24.77;;
20623;SDS011;10471;42.736;23.346;2023-05-17T05:19:35;34.00;;;24.23;;
20623;SDS011;10471;42.736;23.346;2023-05-17T05:22:01;34.87;;;24.27;;
20623;SDS011;10471;42.736;23.346;2023-05-17T05:24:26;41.37;;;26.47;;
20623;SDS011;10471;42.736;23.346;2023-05-17T05:26:51;35.30;;;24.77;;
20623;SDS011;10471;42.736;23.346;2023-05-17T05:29:17;35.47;;;24.20;;
20623;SDS011;10471;42.736;23.346;2023-05-17T05:31:43;36.63;;;24.60;;
20623;SDS011;10471;42.736;23.346;2023-05-17T05:34:08;39.23;;;23.60;;
20623;SDS011;10471;42.736;23.346;2023-05-17T05:36:34;39.43;;;25.10;;
20623;SDS011;10471;42.736;23.346;2023-05-17T05:38:59;37.27;;;23.90;;
20623;SDS011;10471;42.736;23.346;2023-05-17T05:41:25;35.07;;;23.57;;
20623;SDS011;10471;42.736;23.346;2023-05-17T05:43:50;37.17;;;23.30;;
20623;SDS011;10471;42.736;23.346;2023-05-17T05:46:16;36.03;;;22.87;;
20623;SDS011;10471;42.736;23.346;2023-05-17T05:48:41;37.37;;;23.87;;
20623;SDS011;10471;42.736;23.346;2023-05-17T05:51:07;30.00;;;20.40;;
20623;SDS011;10471;42.736;23.346;2023-05-17T05:53:32;32.20;;;21.03;;
20623;SDS011;10471;42.736;23.346;2023-05-17T05:55:58;32.03;;;21.03;;
20623;SDS011;10471;42.736;23.346;2023-05-17T05:58:23;31.00;;;21.00;;
20623;SDS011;10471;42.736;23.346;2023-05-17T06:00:49;29.40;;;19.40;;
20623;SDS011;10471;42.736;23.346;2023-05-17T06:03:14;29.90;;;20.30;;
20623;SDS011;10471;42.736;23.346;2023-05-17T06:05:40;28.83;;;20.37;;
20623;SDS011;10471;42.736;23.346;2023-05-17T06:08:05;29.30;;;19.37;;
20623;SDS011;10471;42.736;23.346;2023-05-17T06:10:31;22.87;;;15.23;;
20623;SDS011;10471;42.736;23.346;2023-05-17T06:12:57;23.23;;;15.87;;
20623;SDS011;10471;42.736;23.346;2023-05-17T06:15:22;23.50;;;16.53;;
20623;SDS011;10471;42.736;23.346;2023-05-17T06:17:47;20.97;;;16.07;;
20623;SDS011;10471;42.736;23.346;2023-05-17T06:20:13;22.80;;;15.20;;
20623;SDS011;10471;42.736;23.346;2023-05-17T06:22:41;21.30;;;14.83;;
20623;SDS011;10471;42.736;23.346;2023-05-17T06:25:09;23.67;;;13.70;;
20623;SDS011;10471;42.736;23.346;2023-05-17T06:27:35;21.83;;;13.83;;
20623;SDS011;10471;42.736;23.346;2023-05-17T06:30:01;19.10;;;13.37;;
20623;SDS011;10471;42.736;23.346;2023-05-17T06:32:28;21.10;;;14.30;;
20623;SDS011;10471;42.736;23.346;2023-05-17T06:34:54;21.73;;;14.40;;
20623;SDS011;10471;42.736;23.346;2023-05-17T06:37:20;20.63;;;14.33;;
20623;SDS011;10471;42.736;23.346;2023-05-17T06:39:45;24.93;;;14.40;;
20623;SDS011;10471;42.736;23.346;2023-05-17T06:42:11;26.77;;;13.90;;
20623;SDS011;10471;42.736;23.346;2023-05-17T06:44:36;22.00;;;14.50;;
20623;SDS011;10471;42.736;23.346;2023-05-17T06:47:02;20.47;;;13.63;;
20623;SDS011;10471;42.736;23.346;2023-05-17T06:49:27;23.07;;;14.97;;
20623;SDS011;10471;42.736;23.346;2023-05-17T06:51:53;27.80;;;14.57;;
20623;SDS011;10471;42.736;23.346;2023-05-17T06:54:19;21.90;;;14.87;;
20623;SDS011;10471;42.736;23.346;2023-05-17T06:56:45;22.90;;;14.70;;
20623;SDS011;10471;42.736;23.346;2023-05-17T06:59:10;22.40;;;14.63;;
20623;SDS011;10471;42.736;23.346;2023-05-17T07:01:36;23.60;;;15.40;;
20623;SDS011;10471;42.736;23.346;2023-05-17T07:04:01;22.30;;;14.80;;
20623;SDS011;10471;42.736;23.346;2023-05-17T07:06:27;23.43;;;15.07;;
20623;SDS011;10471;42.736;23.346;2023-05-17T07:08:52;22.87;;;14.40;;
20623;SDS011;10471;42.736;23.346;2023-05-17T07:11:18;24.60;;;15.27;;
20623;SDS011;10471;42.736;23.346;2023-05-17T07:13:43;28.43;;;15.77;;
20623;SDS011;10471;42.736;23.346;2023-05-17T07:16:09;24.20;;;15.10;;
20623;SDS011;10471;42.736;23.346;2023-05-17T07:18:34;25.67;;;15.67;;
20623;SDS011;10471;42.736;23.346;2023-05-17T07:21:00;24.43;;;16.30;;
20623;SDS011;10471;42.736;23.346;2023-05-17T07:23:25;26.77;;;15.53;;
20623;SDS011;10471;42.736;23.346;2023-05-17T07:25:51;26.57;;;16.30;;
20623;SDS011;10471;42.736;23.346;2023-05-17T07:28:16;24.07;;;15.67;;
20623;SDS011;10471;42.736;23.346;2023-05-17T07:30:41;25.30;;;16.17;;
20623;SDS011;10471;42.736;23.346;2023-05-17T07:33:07;22.47;;;15.13;;
20623;SDS011;10471;42.736;23.346;2023-05-17T07:35:32;25.90;;;16.50;;
20623;SDS011;10471;42.736;23.346;2023-05-17T07:37:58;22.63;;;15.83;;
20623;SDS011;10471;42.736;23.346;2023-05-17T07:40:23;25.97;;;16.13;;
20623;SDS011;10471;42.736;23.346;2023-05-17T07:42:48;24.17;;;16.37;;
20623;SDS011;10471;42.736;23.346;2023-05-17T07:45:14;26.70;;;15.80;;
20623;SDS011;10471;42.736;23.346;2023-05-17T07:47:40;25.23;;;15.50;;
20623;SDS011;10471;42.736;23.346;2023-05-17T07:50:05;23.03;;;15.80;;
20623;SDS011;10471;42.736;23.346;2023-05-17T07:52:31;24.70;;;16.10;;
20623;SDS011;10471;42.736;23.346;2023-05-17T07:54:56;25.43;;;16.20;;
20623;SDS011;10471;42.736;23.346;2023-05-17T07:57:22;21.93;;;14.73;;
20623;SDS011;10471;42.736;23.346;2023-05-17T07:59:47;24.77;;;15.33;;
20623;SDS011;10471;42.736;23.346;2023-05-17T08:02:12;22.00;;;15.63;;
20623;SDS011;10471;42.736;23.346;2023-05-17T08:04:38;24.20;;;15.53;;
20623;SDS011;10471;42.736;23.346;2023-05-17T08:07:03;22.97;;;14.60;;
20623;SDS011;10471;42.736;23.346;2023-05-17T08:09:29;22.77;;;14.87;;
20623;SDS011;10471;42.736;23.346;2023-05-17T08:11:54;23.57;;;14.67;;
20623;SDS011;10471;42.736;23.346;2023-05-17T08:14:21;24.50;;;15.10;;
20623;SDS011;10471;42.736;23.346;2023-05-17T08:16:47;23.60;;;14.33;;
20623;SDS011;10471;42.736;23.346;2023-05-17T08:19:13;25.23;;;15.53;;
20623;SDS011;10471;42.736;23.346;2023-05-17T08:21:40;25.33;;;15.60;;
20623;SDS011;10471;42.736;23.346;2023-05-17T08:24:06;23.30;;;14.90;;
20623;SDS011;10471;42.736;23.346;2023-05-17T08:26:32;24.33;;;14.87;;
20623;SDS011;10471;42.736;23.346;2023-05-17T08:28:58;23.67;;;14.63;;
20623;SDS011;10471;42.736;23.346;2023-05-17T08:31:23;22.33;;;14.90;;
20623;SDS011;10471;42.736;23.346;2023-05-17T08:33:49;24.83;;;14.30;;
20623;SDS011;10471;42.736;23.346;2023-05-17T08:36:14;22.83;;;14.40;;
20623;SDS011;10471;42.736;23.346;2023-05-17T08:38:40;24.07;;;13.67;;
20623;SDS011;10471;42.736;23.346;2023-05-17T08:41:07;24.13;;;13.93;;
20623;SDS011;10471;42.736;23.346;2023-05-17T08:43:32;21.00;;;12.97;;
20623;SDS011;10471;42.736;23.346;2023-05-17T08:45:58;22.70;;;13.37;;
20623;SDS011;10471;42.736;23.346;2023-05-17T08:48:27;18.60;;;12.10;;
20623;SDS011;10471;42.736;23.346;2023-05-17T08:50:55;21.43;;;13.43;;
20623;SDS011;10471;42.736;23.346;2023-05-17T08:53:22;19.80;;;12.83;;
20623;SDS011;10471;42.736;23.346;2023-05-17T08:55:48;22.23;;;14.00;;
20623;SDS011;10471;42.736;23.346;2023-05-17T08:58:15;23.97;;;14.00;;
20623;SDS011;10471;42.736;23.346;2023-05-17T09:00:45;24.03;;;13.87;;
20623;SDS011;10471;42.736;23.346;2023-05-17T09:03:14;20.73;;;12.23;;
20623;SDS011;10471;42.736;23.346;2023-05-17T09:05:42;22.40;;;12.63;;
20623;SDS011;10471;42.736;23.346;2023-05-17T09:08:09;24.23;;;13.17;;
20623;SDS011;10471;42.736;23.346;2023-05-17T09:10:38;23.23;;;14.03;;
20623;SDS011;10471;42.736;23.346;2023-05-17T09:13:06;25.73;;;14.63;;
20623;SDS011;10471;42.736;23.346;2023-05-17T09:15:32;22.97;;;14.07;;
20623;SDS011;10471;42.736;23.346;2023-05-17T09:17:58;21.63;;;12.33;;
20623;SDS011;10471;42.736;23.346;2023-05-17T09:20:25;23.60;;;13.47;;
20623;SDS011;10471;42.736;23.346;2023-05-17T09:23:02;23.10;;;12.60;;
20623;SDS011;10471;42.736;23.346;2023-05-17T09:25:31;20.23;;;12.43;;
20623;SDS011;10471;42.736;23.346;2023-05-17T09:28:00;19.70;;;13.07;;
20623;SDS011;10471;42.736;23.346;2023-05-17T09:30:30;21.23;;;12.77;;
20623;SDS011;10471;42.736;23.346;2023-05-17T09:32:57;20.53;;;12.10;;
20623;SDS011;10471;42.736;23.346;2023-05-17T09:35:29;19.80;;;11.07;;
20623;SDS011;10471;42.736;23.346;2023-05-17T09:38:05;22.63;;;11.40;;
20623;SDS011;10471;42.736;23.346;2023-05-17T09:40:33;18.90;;;10.27;;
20623;SDS011;10471;42.736;23.346;2023-05-17T09:43:02;16.70;;;10.93;;
20623;SDS011;10471;42.736;23.346;2023-05-17T09:45:30;21.37;;;11.03;;
20623;SDS011;10471;42.736;23.346;2023-05-17T09:47:56;17.90;;;10.53;;
20623;SDS011;10471;42.736;23.346;2023-05-17T09:50:23;20.47;;;11.33;;
20623;SDS011;10471;42.736;23.346;2023-05-17T09:52:48;18.17;;;12.03;;
20623;SDS011;10471;42.736;23.346;2023-05-17T09:55:13;18.90;;;10.60;;
20623;SDS011;10471;42.736;23.346;2023-05-17T09:57:40;22.97;;;12.07;;
20623;SDS011;10471;42.736;23.346;2023-05-17T10:00:06;18.47;;;10.70;;
20623;SDS011;10471;42.736;23.346;2023-05-17T10:02:36;18.10;;;10.53;;
20623;SDS011;10471;42.736;23.346;2023-05-17T10:05:03;25.20;;;11.80;;
20623;SDS011;10471;42.736;23.346;2023-05-17T10:07:32;17.40;;;10.23;;
20623;SDS011;10471;42.736;23.346;2023-05-17T10:09:59;19.43;;;11.07;;
20623;SDS011;10471;42.736;23.346;2023-05-17T10:12:26;22.57;;;10.10;;
20623;SDS011;10471;42.736;23.346;2023-05-17T10:14:53;17.87;;;9.67;;
20623;SDS011;10471;42.736;23.346;2023-05-17T10:17:20;15.83;;;8.63;;
20623;SDS011;10471;42.736;23.346;2023-05-17T10:19:47;17.37;;;9.57;;
20623;SDS011;10471;42.736;23.346;2023-05-17T10:22:13;17.23;;;9.10;;
20623;SDS011;10471;42.736;23.346;2023-05-17T10:24:41;17.13;;;9.20;;
20623;SDS011;10471;42.736;23.346;2023-05-17T10:27:07;19.27;;;9.87;;
20623;SDS011;10471;42.736;23.346;2023-05-17T10:29:33;21.57;;;10.10;;
20623;SDS011;10471;42.736;23.346;2023-05-17T10:32:03;18.33;;;9.47;;
20623;SDS011;10471;42.736;23.346;2023-05-17T10:34:32;22.40;;;9.60;;
20623;SDS011;10471;42.736;23.346;2023-05-17T10:36:59;17.33;;;10.63;;
20623;SDS011;10471;42.736;23.346;2023-05-17T10:39:27;23.53;;;13.23;;
20623;SDS011;10471;42.736;23.346;2023-05-17T10:41:53;20.50;;;9.33;;
20623;SDS011;10471;42.736;23.346;2023-05-17T10:44:20;16.27;;;9.40;;
20623;SDS011;10471;42.736;23.346;2023-05-17T10:46:50;19.27;;;9.73;;
20623;SDS011;10471;42.736;23.346;2023-05-17T10:49:17;17.57;;;9.37;;
20623;SDS011;10471;42.736;23.346;2023-05-17T10:51:43;18.90;;;9.33;;
20623;SDS011;10471;42.736;23.346;2023-05-17T10:54:10;20.17;;;9.83;;
20623;SDS011;10471;42.736;23.346;2023-05-17T10:56:52;19.17;;;9.40;;
20623;SDS011;10471;42.736;23.346;2023-05-17T11:04:33;18.73;;;9.90;;
20623;SDS011;10471;42.736;23.346;2023-05-17T11:07:18;19.83;;;9.73;;
20623;SDS011;10471;42.736;23.346;2023-05-17T11:12:34;22.67;;;11.23;;
20623;SDS011;10471;42.736;23.346;2023-05-17T11:25:15;22.50;;;10.97;;
20623;SDS011;10471;42.736;23.346;2023-05-17T11:27:45;24.63;;;11.10;;
20623;SDS011;10471;42.736;23.346;2023-05-17T11:32:53;23.07;;;10.93;;
20623;SDS011;10471;42.736;23.346;2023-05-17T11:35:31;18.83;;;11.27;;
20623;SDS011;10471;42.736;23.346;2023-05-17T11:38:17;22.17;;;10.53;;
20623;SDS011;10471;42.736;23.346;2023-05-17T11:40:51;21.17;;;9.63;;
20623;SDS011;10471;42.736;23.346;2023-05-17T11:43:20;21.63;;;9.43;;
20623;SDS011;10471;42.736;23.346;2023-05-17T11:45:55;21.17;;;9.73;;
20623;SDS011;10471;42.736;23.346;2023-05-17T11:48:21;17.83;;;10.00;;
20623;SDS011;10471;42.736;23.346;2023-05-17T11:50:49;22.20;;;10.17;;
20623;SDS011;10471;42.736;23.346;2023-05-17T11:53:16;19.83;;;10.63;;
20623;SDS011;10471;42.736;23.346;2023-05-17T11:55:43;16.53;;;9.83;;
20623;SDS011;10471;42.736;23.346;2023-05-17T11:58:15;18.60;;;9.17;;
20623;SDS011;10471;42.736;23.346;2023-05-17T12:00:42;17.30;;;9.20;;
20623;SDS011;10471;42.736;23.346;2023-05-17T12:03:18;15.70;;;8.73;;
20623;SDS011;10471;42.736;23.346;2023-05-17T12:05:47;16.43;;;8.50;;
20623;SDS011;10471;42.736;23.346;2023-05-17T12:08:17;18.43;;;9.10;;
20623;SDS011;10471;42.736;23.346;2023-05-17T12:10:50;17.77;;;9.10;;
20623;SDS011;10471;42.736;23.346;2023-05-17T12:13:17;20.63;;;9.67;;
20623;SDS011;10471;42.736;23.346;2023-05-17T12:15:43;17.17;;;8.87;;
20623;SDS011;10471;42.736;23.346;2023-05-17T12:18:10;15.07;;;9.23;;
20623;SDS011;10471;42.736;23.346;2023-05-17T12:20:37;15.63;;;9.23;;
20623;SDS011;10471;42.736;23.346;2023-05-17T12:23:03;17.87;;;9.53;;
20623;SDS011;10471;42.736;23.346;2023-05-17T12:25:28;14.20;;;8.17;;
20623;SDS011;10471;42.736;23.346;2023-05-17T12:30:42;12.43;;;8.90;;
20623;SDS011;10471;42.736;23.346;2023-05-17T12:33:08;13.50;;;9.00;;
20623;SDS011;10471;42.736;23.346;2023-05-17T12:35:34;14.87;;;9.67;;
20623;SDS011;10471;42.736;23.346;2023-05-17T12:38:00;16.60;;;9.50;;
20623;SDS011;10471;42.736;23.346;2023-05-17T12:40:26;14.23;;;9.73;;
20623;SDS011;10471;42.736;23.346;2023-05-17T12:43:00;20.33;;;9.67;;
20623;SDS011;10471;42.736;23.346;2023-05-17T12:45:27;19.30;;;9.70;;
20623;SDS011;10471;42.736;23.346;2023-05-17T12:47:53;15.90;;;8.90;;
20623;SDS011;10471;42.736;23.346;2023-05-17T12:50:27;16.80;;;9.63;;
20623;SDS011;10471;42.736;23.346;2023-05-17T12:52:56;19.63;;;9.67;;
20623;SDS011;10471;42.736;23.346;2023-05-17T12:55:22;18.60;;;9.03;;
20623;SDS011;10471;42.736;23.346;2023-05-17T12:57:49;14.83;;;9.00;;
20623;SDS011;10471;42.736;23.346;2023-05-17T13:00:18;14.53;;;9.40;;
20623;SDS011;10471;42.736;23.346;2023-05-17T13:02:45;15.77;;;8.70;;
20623;SDS011;10471;42.736;23.346;2023-05-17T13:07:40;16.80;;;8.90;;
20623;SDS011;10471;42.736;23.346;2023-05-17T13:10:18;15.60;;;8.63;;
20623;SDS011;10471;42.736;23.346;2023-05-17T13:12:52;20.30;;;9.40;;
20623;SDS011;10471;42.736;23.346;2023-05-17T13:15:28;14.97;;;8.27;;
20623;SDS011;10471;42.736;23.346;2023-05-17T13:17:55;15.80;;;7.87;;
20623;SDS011;10471;42.736;23.346;2023-05-17T13:20:20;14.03;;;7.27;;
20623;SDS011;10471;42.736;23.346;2023-05-17T13:22:46;14.50;;;7.43;;
20623;SDS011;10471;42.736;23.346;2023-05-17T13:25:12;12.70;;;7.30;;
20623;SDS011;10471;42.736;23.346;2023-05-17T13:27:38;17.40;;;7.47;;
20623;SDS011;10471;42.736;23.346;2023-05-17T13:30:09;11.13;;;7.17;;
20623;SDS011;10471;42.736;23.346;2023-05-17T13:32:35;13.97;;;7.17;;
20623;SDS011;10471;42.736;23.346;2023-05-17T13:35:01;10.07;;;6.70;;
20623;SDS011;10471;42.736;23.346;2023-05-17T13:37:26;13.27;;;7.83;;
20623;SDS011;10471;42.736;23.346;2023-05-17T13:39:52;12.73;;;7.27;;
20623;SDS011;10471;42.736;23.346;2023-05-17T13:42:19;13.43;;;7.07;;
20623;SDS011;10471;42.736;23.346;2023-05-17T13:44:45;13.47;;;8.03;;
20623;SDS011;10471;42.736;23.346;2023-05-17T13:47:11;21.77;;;7.97;;
20623;SDS011;10471;42.736;23.346;2023-05-17T13:49:36;12.37;;;7.10;;
20623;SDS011;10471;42.736;23.346;2023-05-17T13:52:02;13.73;;;7.20;;
20623;SDS011;10471;42.736;23.346;2023-05-17T13:54:27;13.00;;;7.03;;
20623;SDS011;10471;42.736;23.346;2023-05-17T13:56:53;12.00;;;7.37;;
20623;SDS011;10471;42.736;23.346;2023-05-17T13:59:19;15.20;;;7.33;;
20623;SDS011;10471;42.736;23.346;2023-05-17T14:01:45;13.07;;;7.00;;
20623;SDS011;10471;42.736;23.346;2023-05-17T14:04:10;14.90;;;7.20;;
20623;SDS011;10471;42.736;23.346;2023-05-17T14:06:37;16.30;;;7.87;;
20623;SDS011;10471;42.736;23.346;2023-05-17T14:09:03;12.77;;;7.30;;
20623;SDS011;10471;42.736;23.346;2023-05-17T14:11:28;14.03;;;7.60;;
20623;SDS011;10471;42.736;23.346;2023-05-17T14:13:53;11.60;;;6.50;;
20623;SDS011;10471;42.736;23.346;2023-05-17T14:16:19;12.67;;;6.90;;
20623;SDS011;10471;42.736;23.346;2023-05-17T14:18:46;13.60;;;7.20;;
20623;SDS011;10471;42.736;23.346;2023-05-17T14:21:11;16.47;;;7.47;;
20623;SDS011;10471;42.736;23.346;2023-05-17T14:23:37;11.07;;;6.40;;
20623;SDS011;10471;42.736;23.346;2023-05-17T14:26:02;13.77;;;7.13;;
20623;SDS011;10471;42.736;23.346;2023-05-17T14:28:31;14.80;;;6.87;;
20623;SDS011;10471;42.736;23.346;2023-05-17T14:30:57;12.83;;;6.40;;
20623;SDS011;10471;42.736;23.346;2023-05-17T14:33:22;14.77;;;6.27;;
20623;SDS011;10471;42.736;23.346;2023-05-17T14:35:47;16.77;;;7.40;;
20623;SDS011;10471;42.736;23.346;2023-05-17T14:38:13;14.37;;;6.33;;
20623;SDS011;10471;42.736;23.346;2023-05-17T14:40:38;13.40;;;6.23;;
20623;SDS011;10471;42.736;23.346;2023-05-17T14:43:04;11.90;;;6.43;;
20623;SDS011;10471;42.736;23.346;2023-05-17T14:45:29;14.27;;;6.20;;
20623;SDS011;10471;42.736;23.346;2023-05-17T14:47:54;13.53;;;7.20;;
20623;SDS011;10471;42.736;23.346;2023-05-17T14:50:20;11.67;;;7.43;;
20623;SDS011;10471;42.736;23.346;2023-05-17T14:52:45;12.73;;;7.60;;
20623;SDS011;10471;42.736;23.346;2023-05-17T14:55:11;17.93;;;9.17;;